sensor_id;sensor_type;location;lat;lon;timestamp;P1;durP1;ratioP1;P2;durP2;ratioP2
23404;SDS011;11875;49.356;2.718;2022-11-20T00:00:40;13.60;;;3.90;;
23404;SDS011;11875;49.356;2.718;2022-11-20T00:03:05;11.60;;;5.57;;
23404;SDS011;11875;49.356;2.718;2022-11-20T00:05:34;11.87;;;5.30;;
23404;SDS011;11875;49.356;2.718;2022-11-20T00:08:00;6.20;;;3.53;;
23404;SDS011;11875;49.356;2.718;2022-11-20T00:10:25;6.90;;;3.33;;
23404;SDS011;11875;49.356;2.718;2022-11-20T00:12:51;6.27;;;3.33;;
23404;SDS011;11875;49.356;2.718;2022-11-20T00:15:17;6.30;;;3.60;;
23404;SDS011;11875;49.356;2.718;2022-11-20T00:17:42;6.20;;;3.47;;
23404;SDS011;11875;49.356;2.718;2022-11-20T00:20:08;8.93;;;3.50;;
23404;SDS011;11875;49.356;2.718;2022-11-20T00:22:34;8.47;;;3.20;;
23404;SDS011;11875;49.356;2.718;2022-11-20T00:25:00;5.43;;;3.60;;
23404;SDS011;11875;49.356;2.718;2022-11-20T00:27:25;8.03;;;3.53;;
23404;SDS011;11875;49.356;2.718;2022-11-20T00:29:51;7.33;;;3.27;;
23404;SDS011;11875;49.356;2.718;2022-11-20T00:32:16;8.00;;;3.27;;
23404;SDS011;11875;49.356;2.718;2022-11-20T00:34:42;5.53;;;3.03;;
23404;SDS011;11875;49.356;2.718;2022-11-20T00:37:07;7.60;;;3.33;;
23404;SDS011;11875;49.356;2.718;2022-11-20T00:39:33;6.30;;;3.53;;
23404;SDS011;11875;49.356;2.718;2022-11-20T00:41:59;16.77;;;3.90;;
23404;SDS011;11875;49.356;2.718;2022-11-20T00:44:24;6.07;;;3.33;;
23404;SDS011;11875;49.356;2.718;2022-11-20T00:46:50;7.93;;;3.33;;
23404;SDS011;11875;49.356;2.718;2022-11-20T00:49:15;5.60;;;3.10;;
23404;SDS011;11875;49.356;2.718;2022-11-20T00:51:41;6.00;;;3.10;;
23404;SDS011;11875;49.356;2.718;2022-11-20T00:54:06;11.13;;;2.97;;
23404;SDS011;11875;49.356;2.718;2022-11-20T00:56:32;7.03;;;2.90;;
23404;SDS011;11875;49.356;2.718;2022-11-20T00:58:59;8.63;;;3.50;;
23404;SDS011;11875;49.356;2.718;2022-11-20T01:01:26;10.93;;;3.97;;
23404;SDS011;11875;49.356;2.718;2022-11-20T01:03:54;6.63;;;3.83;;
23404;SDS011;11875;49.356;2.718;2022-11-20T01:06:22;13.97;;;4.40;;
23404;SDS011;11875;49.356;2.718;2022-11-20T01:08:50;6.13;;;3.60;;
23404;SDS011;11875;49.356;2.718;2022-11-20T01:11:19;7.70;;;3.17;;
23404;SDS011;11875;49.356;2.718;2022-11-20T01:13:46;8.83;;;4.23;;
23404;SDS011;11875;49.356;2.718;2022-11-20T01:16:14;7.37;;;3.93;;
23404;SDS011;11875;49.356;2.718;2022-11-20T01:18:51;9.60;;;3.97;;
23404;SDS011;11875;49.356;2.718;2022-11-20T01:21:19;6.80;;;3.67;;
23404;SDS011;11875;49.356;2.718;2022-11-20T01:23:47;8.43;;;3.80;;
23404;SDS011;11875;49.356;2.718;2022-11-20T01:26:15;7.97;;;3.30;;
23404;SDS011;11875;49.356;2.718;2022-11-20T01:28:46;8.67;;;3.93;;
23404;SDS011;11875;49.356;2.718;2022-11-20T01:33:45;7.00;;;4.20;;
23404;SDS011;11875;49.356;2.718;2022-11-20T01:36:12;6.27;;;3.70;;
23404;SDS011;11875;49.356;2.718;2022-11-20T01:38:38;9.17;;;3.90;;
23404;SDS011;11875;49.356;2.718;2022-11-20T01:41:04;5.60;;;3.53;;
23404;SDS011;11875;49.356;2.718;2022-11-20T01:43:31;6.93;;;3.73;;
23404;SDS011;11875;49.356;2.718;2022-11-20T01:48:52;9.03;;;3.93;;
23404;SDS011;11875;49.356;2.718;2022-11-20T01:54:11;6.27;;;3.83;;
23404;SDS011;11875;49.356;2.718;2022-11-20T01:56:42;9.43;;;4.10;;
23404;SDS011;11875;49.356;2.718;2022-11-20T01:59:09;7.37;;;3.50;;
23404;SDS011;11875;49.356;2.718;2022-11-20T02:01:36;9.40;;;4.17;;
23404;SDS011;11875;49.356;2.718;2022-11-20T02:04:04;10.70;;;4.10;;
23404;SDS011;11875;49.356;2.718;2022-11-20T02:09:25;6.57;;;4.07;;
23404;SDS011;11875;49.356;2.718;2022-11-20T02:11:52;6.63;;;3.53;;
23404;SDS011;11875;49.356;2.718;2022-11-20T02:14:19;9.80;;;4.10;;
23404;SDS011;11875;49.356;2.718;2022-11-20T02:16:46;5.37;;;3.57;;
23404;SDS011;11875;49.356;2.718;2022-11-20T02:19:35;7.17;;;3.87;;
23404;SDS011;11875;49.356;2.718;2022-11-20T02:24:41;8.83;;;4.13;;
23404;SDS011;11875;49.356;2.718;2022-11-20T02:27:13;6.00;;;3.70;;
23404;SDS011;11875;49.356;2.718;2022-11-20T02:29:42;6.73;;;3.87;;
23404;SDS011;11875;49.356;2.718;2022-11-20T02:32:29;7.83;;;4.30;;
23404;SDS011;11875;49.356;2.718;2022-11-20T02:34:57;5.97;;;3.60;;
23404;SDS011;11875;49.356;2.718;2022-11-20T02:37:32;5.80;;;3.40;;
23404;SDS011;11875;49.356;2.718;2022-11-20T02:39:59;5.57;;;3.90;;
23404;SDS011;11875;49.356;2.718;2022-11-20T02:42:25;6.83;;;3.50;;
23404;SDS011;11875;49.356;2.718;2022-11-20T02:44:50;6.77;;;3.73;;
23404;SDS011;11875;49.356;2.718;2022-11-20T02:47:16;10.13;;;3.60;;
23404;SDS011;11875;49.356;2.718;2022-11-20T02:49:41;6.57;;;3.53;;
23404;SDS011;11875;49.356;2.718;2022-11-20T02:52:07;11.13;;;4.27;;
23404;SDS011;11875;49.356;2.718;2022-11-20T02:54:33;6.27;;;3.60;;
23404;SDS011;11875;49.356;2.718;2022-11-20T02:56:58;6.23;;;3.87;;
23404;SDS011;11875;49.356;2.718;2022-11-20T02:59:24;6.17;;;3.70;;
23404;SDS011;11875;49.356;2.718;2022-11-20T03:01:49;7.33;;;3.40;;
23404;SDS011;11875;49.356;2.718;2022-11-20T03:04:15;6.13;;;3.37;;
23404;SDS011;11875;49.356;2.718;2022-11-20T03:06:40;11.13;;;3.83;;
23404;SDS011;11875;49.356;2.718;2022-11-20T03:09:06;9.63;;;3.80;;
23404;SDS011;11875;49.356;2.718;2022-11-20T03:11:32;5.50;;;3.20;;
23404;SDS011;11875;49.356;2.718;2022-11-20T03:13:57;8.37;;;3.53;;
23404;SDS011;11875;49.356;2.718;2022-11-20T03:16:27;8.93;;;2.93;;
23404;SDS011;11875;49.356;2.718;2022-11-20T03:18:53;9.50;;;3.70;;
23404;SDS011;11875;49.356;2.718;2022-11-20T03:21:18;7.33;;;3.30;;
23404;SDS011;11875;49.356;2.718;2022-11-20T03:23:44;9.17;;;3.53;;
23404;SDS011;11875;49.356;2.718;2022-11-20T03:26:10;8.00;;;3.33;;
23404;SDS011;11875;49.356;2.718;2022-11-20T03:28:36;4.43;;;3.13;;
23404;SDS011;11875;49.356;2.718;2022-11-20T03:31:06;7.53;;;2.93;;
23404;SDS011;11875;49.356;2.718;2022-11-20T03:33:39;6.87;;;3.50;;
23404;SDS011;11875;49.356;2.718;2022-11-20T03:36:07;7.80;;;3.50;;
23404;SDS011;11875;49.356;2.718;2022-11-20T03:38:35;5.83;;;3.23;;
23404;SDS011;11875;49.356;2.718;2022-11-20T03:41:02;12.50;;;4.10;;
23404;SDS011;11875;49.356;2.718;2022-11-20T03:43:34;7.87;;;4.00;;
23404;SDS011;11875;49.356;2.718;2022-11-20T03:46:01;10.33;;;4.10;;
23404;SDS011;11875;49.356;2.718;2022-11-20T03:48:27;7.50;;;4.13;;
23404;SDS011;11875;49.356;2.718;2022-11-20T03:50:53;9.97;;;4.10;;
23404;SDS011;11875;49.356;2.718;2022-11-20T03:53:31;7.27;;;4.47;;
23404;SDS011;11875;49.356;2.718;2022-11-20T03:55:56;12.50;;;5.50;;
23404;SDS011;11875;49.356;2.718;2022-11-20T03:58:22;9.90;;;5.40;;
23404;SDS011;11875;49.356;2.718;2022-11-20T04:00:48;17.43;;;6.47;;
23404;SDS011;11875;49.356;2.718;2022-11-20T04:03:13;16.50;;;6.97;;
23404;SDS011;11875;49.356;2.718;2022-11-20T04:05:39;13.80;;;5.60;;
23404;SDS011;11875;49.356;2.718;2022-11-20T04:08:04;10.40;;;6.30;;
23404;SDS011;11875;49.356;2.718;2022-11-20T04:10:30;13.23;;;6.63;;
23404;SDS011;11875;49.356;2.718;2022-11-20T04:12:56;12.13;;;5.83;;
23404;SDS011;11875;49.356;2.718;2022-11-20T04:15:21;15.03;;;6.60;;
23404;SDS011;11875;49.356;2.718;2022-11-20T04:17:47;11.10;;;5.70;;
23404;SDS011;11875;49.356;2.718;2022-11-20T04:20:12;12.37;;;5.40;;
23404;SDS011;11875;49.356;2.718;2022-11-20T04:22:38;16.57;;;6.40;;
23404;SDS011;11875;49.356;2.718;2022-11-20T04:25:03;14.37;;;5.97;;
23404;SDS011;11875;49.356;2.718;2022-11-20T04:27:30;14.73;;;5.97;;
23404;SDS011;11875;49.356;2.718;2022-11-20T04:29:56;15.67;;;5.70;;
23404;SDS011;11875;49.356;2.718;2022-11-20T04:32:21;9.13;;;6.03;;
23404;SDS011;11875;49.356;2.718;2022-11-20T04:34:47;15.37;;;6.47;;
23404;SDS011;11875;49.356;2.718;2022-11-20T04:37:12;10.97;;;5.60;;
23404;SDS011;11875;49.356;2.718;2022-11-20T04:39:38;16.73;;;5.80;;
23404;SDS011;11875;49.356;2.718;2022-11-20T04:42:04;8.00;;;4.50;;
23404;SDS011;11875;49.356;2.718;2022-11-20T04:44:48;9.80;;;4.53;;
23404;SDS011;11875;49.356;2.718;2022-11-20T04:47:13;7.83;;;4.07;;
23404;SDS011;11875;49.356;2.718;2022-11-20T04:49:39;6.33;;;3.57;;
23404;SDS011;11875;49.356;2.718;2022-11-20T04:52:05;8.03;;;3.00;;
23404;SDS011;11875;49.356;2.718;2022-11-20T04:54:30;6.23;;;2.40;;
23404;SDS011;11875;49.356;2.718;2022-11-20T04:56:56;8.50;;;2.63;;
23404;SDS011;11875;49.356;2.718;2022-11-20T04:59:21;6.67;;;2.87;;
23404;SDS011;11875;49.356;2.718;2022-11-20T05:01:47;4.70;;;1.90;;
23404;SDS011;11875;49.356;2.718;2022-11-20T05:04:13;8.13;;;2.17;;
23404;SDS011;11875;49.356;2.718;2022-11-20T05:06:38;10.73;;;2.27;;
23404;SDS011;11875;49.356;2.718;2022-11-20T05:09:04;4.37;;;2.00;;
23404;SDS011;11875;49.356;2.718;2022-11-20T05:11:31;3.43;;;1.97;;
23404;SDS011;11875;49.356;2.718;2022-11-20T05:13:57;5.77;;;1.93;;
23404;SDS011;11875;49.356;2.718;2022-11-20T05:16:24;3.37;;;2.03;;
23404;SDS011;11875;49.356;2.718;2022-11-20T05:18:50;6.30;;;2.00;;
23404;SDS011;11875;49.356;2.718;2022-11-20T05:21:16;10.83;;;2.40;;
23404;SDS011;11875;49.356;2.718;2022-11-20T05:23:43;6.30;;;2.40;;
23404;SDS011;11875;49.356;2.718;2022-11-20T05:26:17;6.90;;;2.20;;
23404;SDS011;11875;49.356;2.718;2022-11-20T05:28:44;12.60;;;3.43;;
23404;SDS011;11875;49.356;2.718;2022-11-20T05:31:17;5.10;;;2.50;;
23404;SDS011;11875;49.356;2.718;2022-11-20T05:33:45;4.27;;;2.17;;
23404;SDS011;11875;49.356;2.718;2022-11-20T05:36:11;4.83;;;2.30;;
23404;SDS011;11875;49.356;2.718;2022-11-20T05:38:38;6.83;;;3.00;;
23404;SDS011;11875;49.356;2.718;2022-11-20T05:41:14;6.87;;;3.07;;
23404;SDS011;11875;49.356;2.718;2022-11-20T05:43:41;8.13;;;3.23;;
23404;SDS011;11875;49.356;2.718;2022-11-20T05:46:09;11.80;;;3.30;;
23404;SDS011;11875;49.356;2.718;2022-11-20T05:48:37;6.40;;;2.87;;
23404;SDS011;11875;49.356;2.718;2022-11-20T05:51:04;6.70;;;3.43;;
23404;SDS011;11875;49.356;2.718;2022-11-20T05:53:32;5.53;;;2.80;;
23404;SDS011;11875;49.356;2.718;2022-11-20T05:56:12;6.43;;;3.00;;
23404;SDS011;11875;49.356;2.718;2022-11-20T05:58:39;4.50;;;2.37;;
23404;SDS011;11875;49.356;2.718;2022-11-20T06:01:15;8.43;;;2.53;;
23404;SDS011;11875;49.356;2.718;2022-11-20T06:03:43;7.03;;;2.50;;
23404;SDS011;11875;49.356;2.718;2022-11-20T06:06:12;7.40;;;2.63;;
23404;SDS011;11875;49.356;2.718;2022-11-20T06:08:38;5.47;;;2.87;;
23404;SDS011;11875;49.356;2.718;2022-11-20T06:11:05;5.17;;;3.10;;
23404;SDS011;11875;49.356;2.718;2022-11-20T06:13:31;7.00;;;3.40;;
23404;SDS011;11875;49.356;2.718;2022-11-20T06:15:57;6.83;;;3.60;;
23404;SDS011;11875;49.356;2.718;2022-11-20T06:18:25;7.57;;;3.30;;
23404;SDS011;11875;49.356;2.718;2022-11-20T06:21:27;8.10;;;4.23;;
23404;SDS011;11875;49.356;2.718;2022-11-20T06:23:47;16.83;;;4.90;;
23404;SDS011;11875;49.356;2.718;2022-11-20T06:26:15;15.47;;;7.33;;
23404;SDS011;11875;49.356;2.718;2022-11-20T06:28:46;16.67;;;9.10;;
23404;SDS011;11875;49.356;2.718;2022-11-20T06:31:13;8.20;;;5.30;;
23404;SDS011;11875;49.356;2.718;2022-11-20T06:33:40;9.50;;;4.47;;
23404;SDS011;11875;49.356;2.718;2022-11-20T06:36:06;5.23;;;2.90;;
23404;SDS011;11875;49.356;2.718;2022-11-20T06:38:32;4.83;;;3.10;;
23404;SDS011;11875;49.356;2.718;2022-11-20T06:40:58;5.27;;;2.83;;
23404;SDS011;11875;49.356;2.718;2022-11-20T06:43:23;9.57;;;2.83;;
23404;SDS011;11875;49.356;2.718;2022-11-20T06:45:53;5.00;;;2.60;;
23404;SDS011;11875;49.356;2.718;2022-11-20T06:48:20;6.80;;;3.23;;
23404;SDS011;11875;49.356;2.718;2022-11-20T06:50:45;5.40;;;3.17;;
23404;SDS011;11875;49.356;2.718;2022-11-20T06:53:11;7.03;;;2.67;;
23404;SDS011;11875;49.356;2.718;2022-11-20T06:55:36;4.23;;;2.47;;
23404;SDS011;11875;49.356;2.718;2022-11-20T06:58:06;6.13;;;2.83;;
23404;SDS011;11875;49.356;2.718;2022-11-20T07:00:32;4.37;;;2.50;;
23404;SDS011;11875;49.356;2.718;2022-11-20T07:02:57;6.10;;;2.33;;
23404;SDS011;11875;49.356;2.718;2022-11-20T07:05:23;5.70;;;2.70;;
23404;SDS011;11875;49.356;2.718;2022-11-20T07:07:48;5.10;;;2.50;;
23404;SDS011;11875;49.356;2.718;2022-11-20T07:10:14;4.63;;;2.40;;
23404;SDS011;11875;49.356;2.718;2022-11-20T07:12:39;7.87;;;2.60;;
23404;SDS011;11875;49.356;2.718;2022-11-20T07:15:05;8.07;;;2.70;;
23404;SDS011;11875;49.356;2.718;2022-11-20T07:17:31;5.77;;;3.80;;
23404;SDS011;11875;49.356;2.718;2022-11-20T07:19:57;4.93;;;2.97;;
23404;SDS011;11875;49.356;2.718;2022-11-20T07:22:23;7.10;;;2.53;;
23404;SDS011;11875;49.356;2.718;2022-11-20T07:24:48;10.17;;;2.50;;
23404;SDS011;11875;49.356;2.718;2022-11-20T07:27:14;5.40;;;2.93;;
23404;SDS011;11875;49.356;2.718;2022-11-20T07:29:39;6.30;;;2.50;;
23404;SDS011;11875;49.356;2.718;2022-11-20T07:32:05;4.97;;;2.57;;
23404;SDS011;11875;49.356;2.718;2022-11-20T07:34:30;6.63;;;2.60;;
23404;SDS011;11875;49.356;2.718;2022-11-20T07:36:56;8.00;;;3.13;;
23404;SDS011;11875;49.356;2.718;2022-11-20T07:39:22;9.27;;;2.73;;
23404;SDS011;11875;49.356;2.718;2022-11-20T07:41:47;6.93;;;2.67;;
23404;SDS011;11875;49.356;2.718;2022-11-20T07:44:13;5.93;;;2.70;;
23404;SDS011;11875;49.356;2.718;2022-11-20T07:46:38;5.23;;;3.33;;
23404;SDS011;11875;49.356;2.718;2022-11-20T07:49:04;9.77;;;2.97;;
23404;SDS011;11875;49.356;2.718;2022-11-20T07:51:29;11.77;;;3.80;;
23404;SDS011;11875;49.356;2.718;2022-11-20T07:53:55;14.70;;;4.83;;
23404;SDS011;11875;49.356;2.718;2022-11-20T07:56:20;10.07;;;5.50;;
23404;SDS011;11875;49.356;2.718;2022-11-20T07:58:46;8.40;;;4.40;;
23404;SDS011;11875;49.356;2.718;2022-11-20T08:01:12;9.60;;;5.13;;
23404;SDS011;11875;49.356;2.718;2022-11-20T08:03:37;10.67;;;4.20;;
23404;SDS011;11875;49.356;2.718;2022-11-20T08:06:03;7.03;;;3.83;;
23404;SDS011;11875;49.356;2.718;2022-11-20T08:08:29;9.23;;;4.43;;
23404;SDS011;11875;49.356;2.718;2022-11-20T08:10:58;8.37;;;4.17;;
23404;SDS011;11875;49.356;2.718;2022-11-20T08:13:42;11.63;;;4.60;;
23404;SDS011;11875;49.356;2.718;2022-11-20T08:16:27;11.00;;;5.17;;
23404;SDS011;11875;49.356;2.718;2022-11-20T08:18:53;6.27;;;4.20;;
23404;SDS011;11875;49.356;2.718;2022-11-20T08:21:18;7.90;;;4.23;;
23404;SDS011;11875;49.356;2.718;2022-11-20T08:23:44;9.70;;;4.40;;
23404;SDS011;11875;49.356;2.718;2022-11-20T08:26:09;7.40;;;4.70;;
23404;SDS011;11875;49.356;2.718;2022-11-20T08:28:35;13.47;;;7.93;;
23404;SDS011;11875;49.356;2.718;2022-11-20T08:31:01;9.10;;;4.53;;
23404;SDS011;11875;49.356;2.718;2022-11-20T08:33:28;7.87;;;4.07;;
23404;SDS011;11875;49.356;2.718;2022-11-20T08:36:01;6.63;;;3.70;;
23404;SDS011;11875;49.356;2.718;2022-11-20T08:38:28;8.83;;;3.97;;
23404;SDS011;11875;49.356;2.718;2022-11-20T08:41:00;7.27;;;4.37;;
23404;SDS011;11875;49.356;2.718;2022-11-20T08:43:46;7.43;;;3.97;;
23404;SDS011;11875;49.356;2.718;2022-11-20T08:46:12;7.03;;;3.63;;
23404;SDS011;11875;49.356;2.718;2022-11-20T08:48:37;6.07;;;3.63;;
23404;SDS011;11875;49.356;2.718;2022-11-20T08:51:03;7.23;;;3.70;;
23404;SDS011;11875;49.356;2.718;2022-11-20T08:53:29;5.57;;;2.90;;
23404;SDS011;11875;49.356;2.718;2022-11-20T08:55:56;7.23;;;4.10;;
23404;SDS011;11875;49.356;2.718;2022-11-20T08:58:21;5.47;;;4.13;;
23404;SDS011;11875;49.356;2.718;2022-11-20T09:00:47;8.47;;;3.70;;
23404;SDS011;11875;49.356;2.718;2022-11-20T09:03:13;12.47;;;9.27;;
23404;SDS011;11875;49.356;2.718;2022-11-20T09:05:39;10.20;;;3.80;;
23404;SDS011;11875;49.356;2.718;2022-11-20T09:08:04;7.77;;;3.30;;
23404;SDS011;11875;49.356;2.718;2022-11-20T09:10:30;5.10;;;3.27;;
23404;SDS011;11875;49.356;2.718;2022-11-20T09:12:57;9.80;;;3.97;;
23404;SDS011;11875;49.356;2.718;2022-11-20T09:15:23;7.57;;;3.80;;
23404;SDS011;11875;49.356;2.718;2022-11-20T09:17:52;6.63;;;3.43;;
23404;SDS011;11875;49.356;2.718;2022-11-20T09:20:18;8.73;;;4.40;;
23404;SDS011;11875;49.356;2.718;2022-11-20T09:22:44;8.37;;;3.20;;
23404;SDS011;11875;49.356;2.718;2022-11-20T09:25:10;9.13;;;3.90;;
23404;SDS011;11875;49.356;2.718;2022-11-20T09:27:35;7.07;;;3.40;;
23404;SDS011;11875;49.356;2.718;2022-11-20T09:30:02;6.67;;;3.40;;
23404;SDS011;11875;49.356;2.718;2022-11-20T09:32:28;7.77;;;4.10;;
23404;SDS011;11875;49.356;2.718;2022-11-20T09:34:54;8.00;;;4.13;;
23404;SDS011;11875;49.356;2.718;2022-11-20T09:37:19;5.97;;;3.30;;
23404;SDS011;11875;49.356;2.718;2022-11-20T09:39:45;16.37;;;3.93;;
23404;SDS011;11875;49.356;2.718;2022-11-20T09:50:23;8.67;;;3.57;;
23404;SDS011;11875;49.356;2.718;2022-11-20T09:55:19;15.77;;;7.97;;
23404;SDS011;11875;49.356;2.718;2022-11-20T09:57:46;7.67;;;3.37;;
23404;SDS011;11875;49.356;2.718;2022-11-20T10:00:13;9.23;;;5.00;;
23404;SDS011;11875;49.356;2.718;2022-11-20T10:02:42;4.37;;;2.83;;
23404;SDS011;11875;49.356;2.718;2022-11-20T10:07:47;7.00;;;3.87;;
23404;SDS011;11875;49.356;2.718;2022-11-20T10:18:53;6.40;;;3.57;;
23404;SDS011;11875;49.356;2.718;2022-11-20T10:21:41;5.00;;;3.40;;
23404;SDS011;11875;49.356;2.718;2022-11-20T10:27:30;6.83;;;3.17;;
23404;SDS011;11875;49.356;2.718;2022-11-20T10:30:16;8.33;;;3.90;;
23404;SDS011;11875;49.356;2.718;2022-11-20T10:32:46;10.07;;;3.60;;
23404;SDS011;11875;49.356;2.718;2022-11-20T10:35:25;9.03;;;4.50;;
23404;SDS011;11875;49.356;2.718;2022-11-20T10:38:20;33.53;;;15.97;;
23404;SDS011;11875;49.356;2.718;2022-11-20T10:40:54;19.60;;;8.13;;
23404;SDS011;11875;49.356;2.718;2022-11-20T10:43:43;7.00;;;4.03;;
23404;SDS011;11875;49.356;2.718;2022-11-20T10:46:16;9.83;;;4.03;;
23404;SDS011;11875;49.356;2.718;2022-11-20T10:48:49;10.13;;;3.80;;
23404;SDS011;11875;49.356;2.718;2022-11-20T10:57:30;9.70;;;6.20;;
23404;SDS011;11875;49.356;2.718;2022-11-20T10:59:52;8.53;;;4.40;;
23404;SDS011;11875;49.356;2.718;2022-11-20T11:02:32;7.37;;;5.20;;
23404;SDS011;11875;49.356;2.718;2022-11-20T11:05:33;7.33;;;5.30;;
23404;SDS011;11875;49.356;2.718;2022-11-20T11:08:05;10.97;;;5.23;;
23404;SDS011;11875;49.356;2.718;2022-11-20T11:13:20;8.03;;;5.23;;
23404;SDS011;11875;49.356;2.718;2022-11-20T11:15:46;6.57;;;4.93;;
23404;SDS011;11875;49.356;2.718;2022-11-20T11:18:11;7.43;;;5.20;;
23404;SDS011;11875;49.356;2.718;2022-11-20T11:20:51;9.27;;;5.83;;
23404;SDS011;11875;49.356;2.718;2022-11-20T11:25:58;11.33;;;5.47;;
23404;SDS011;11875;49.356;2.718;2022-11-20T11:28:25;7.40;;;5.60;;
23404;SDS011;11875;49.356;2.718;2022-11-20T11:30:52;8.17;;;5.57;;
23404;SDS011;11875;49.356;2.718;2022-11-20T11:33:20;10.80;;;6.10;;
23404;SDS011;11875;49.356;2.718;2022-11-20T11:35:56;9.73;;;5.70;;
23404;SDS011;11875;49.356;2.718;2022-11-20T11:40:59;13.67;;;7.63;;
23404;SDS011;11875;49.356;2.718;2022-11-20T11:43:26;10.33;;;7.20;;
23404;SDS011;11875;49.356;2.718;2022-11-20T11:46:21;14.57;;;7.80;;
23404;SDS011;11875;49.356;2.718;2022-11-20T11:48:54;8.90;;;5.63;;
23404;SDS011;11875;49.356;2.718;2022-11-20T11:51:46;8.90;;;6.60;;
23404;SDS011;11875;49.356;2.718;2022-11-20T11:57:16;8.17;;;5.70;;
23404;SDS011;11875;49.356;2.718;2022-11-20T11:59:50;16.50;;;11.03;;
23404;SDS011;11875;49.356;2.718;2022-11-20T12:05:39;28.93;;;17.87;;
23404;SDS011;11875;49.356;2.718;2022-11-20T12:08:26;25.30;;;17.60;;
23404;SDS011;11875;49.356;2.718;2022-11-20T12:11:05;5.90;;;4.40;;
23404;SDS011;11875;49.356;2.718;2022-11-20T12:13:44;11.80;;;7.80;;
23404;SDS011;11875;49.356;2.718;2022-11-20T12:16:19;7.97;;;5.57;;
23404;SDS011;11875;49.356;2.718;2022-11-20T12:18:46;7.77;;;5.83;;
23404;SDS011;11875;49.356;2.718;2022-11-20T12:43:35;9.00;;;5.53;;
23404;SDS011;11875;49.356;2.718;2022-11-20T12:52:02;4.87;;;3.97;;
23404;SDS011;11875;49.356;2.718;2022-11-20T13:00:08;4.30;;;3.53;;
23404;SDS011;11875;49.356;2.718;2022-11-20T13:05:20;9.50;;;5.67;;
23404;SDS011;11875;49.356;2.718;2022-11-20T13:08:06;5.73;;;4.70;;
23404;SDS011;11875;49.356;2.718;2022-11-20T13:18:50;4.50;;;3.60;;
23404;SDS011;11875;49.356;2.718;2022-11-20T13:21:20;6.63;;;4.13;;
23404;SDS011;11875;49.356;2.718;2022-11-20T13:23:48;5.27;;;3.77;;
23404;SDS011;11875;49.356;2.718;2022-11-20T13:26:20;5.77;;;3.13;;
23404;SDS011;11875;49.356;2.718;2022-11-20T13:28:59;8.77;;;5.37;;
23404;SDS011;11875;49.356;2.718;2022-11-20T13:31:48;7.17;;;5.13;;
23404;SDS011;11875;49.356;2.718;2022-11-20T13:34:22;8.17;;;5.67;;
23404;SDS011;11875;49.356;2.718;2022-11-20T13:36:52;7.87;;;5.53;;
23404;SDS011;11875;49.356;2.718;2022-11-20T13:39:35;6.93;;;5.23;;
23404;SDS011;11875;49.356;2.718;2022-11-20T13:44:51;8.03;;;4.50;;
23404;SDS011;11875;49.356;2.718;2022-11-20T13:47:23;7.57;;;5.13;;
23404;SDS011;11875;49.356;2.718;2022-11-20T13:49:51;7.90;;;4.17;;
23404;SDS011;11875;49.356;2.718;2022-11-20T13:52:29;5.40;;;4.43;;
23404;SDS011;11875;49.356;2.718;2022-11-20T14:03:42;12.40;;;6.93;;
23404;SDS011;11875;49.356;2.718;2022-11-20T14:06:12;8.27;;;6.40;;
23404;SDS011;11875;49.356;2.718;2022-11-20T14:08:47;10.83;;;6.23;;
23404;SDS011;11875;49.356;2.718;2022-11-20T14:11:17;11.80;;;7.43;;
23404;SDS011;11875;49.356;2.718;2022-11-20T14:13:55;11.03;;;6.70;;
23404;SDS011;11875;49.356;2.718;2022-11-20T14:16:26;12.73;;;8.10;;
23404;SDS011;11875;49.356;2.718;2022-11-20T14:18:53;11.53;;;7.00;;
23404;SDS011;11875;49.356;2.718;2022-11-20T14:21:27;8.50;;;4.10;;
23404;SDS011;11875;49.356;2.718;2022-11-20T14:24:18;6.93;;;3.90;;
23404;SDS011;11875;49.356;2.718;2022-11-20T14:26:47;5.63;;;4.33;;
23404;SDS011;11875;49.356;2.718;2022-11-20T14:29:17;5.27;;;3.73;;
23404;SDS011;11875;49.356;2.718;2022-11-20T14:31:46;8.13;;;4.60;;
23404;SDS011;11875;49.356;2.718;2022-11-20T14:34:17;9.13;;;4.33;;
23404;SDS011;11875;49.356;2.718;2022-11-20T14:36:45;7.90;;;4.50;;
23404;SDS011;11875;49.356;2.718;2022-11-20T14:39:11;17.40;;;6.50;;
23404;SDS011;11875;49.356;2.718;2022-11-20T14:41:50;10.40;;;6.50;;
23404;SDS011;11875;49.356;2.718;2022-11-20T14:44:16;7.27;;;4.27;;
23404;SDS011;11875;49.356;2.718;2022-11-20T14:46:42;11.23;;;5.20;;
23404;SDS011;11875;49.356;2.718;2022-11-20T14:49:08;7.87;;;5.10;;
23404;SDS011;11875;49.356;2.718;2022-11-20T14:51:37;12.13;;;4.57;;
23404;SDS011;11875;49.356;2.718;2022-11-20T14:54:16;10.40;;;5.50;;
23404;SDS011;11875;49.356;2.718;2022-11-20T14:56:59;9.57;;;5.57;;
23404;SDS011;11875;49.356;2.718;2022-11-20T14:59:32;13.97;;;6.57;;
23404;SDS011;11875;49.356;2.718;2022-11-20T15:02:11;9.23;;;4.23;;
23404;SDS011;11875;49.356;2.718;2022-11-20T15:04:50;12.07;;;5.93;;
23404;SDS011;11875;49.356;2.718;2022-11-20T15:07:28;11.63;;;5.77;;
23404;SDS011;11875;49.356;2.718;2022-11-20T15:09:59;13.63;;;5.73;;
23404;SDS011;11875;49.356;2.718;2022-11-20T15:12:50;9.40;;;5.97;;
23404;SDS011;11875;49.356;2.718;2022-11-20T15:15:21;13.67;;;8.90;;
23404;SDS011;11875;49.356;2.718;2022-11-20T15:21:03;20.90;;;7.50;;
23404;SDS011;11875;49.356;2.718;2022-11-20T15:23:34;12.40;;;4.80;;
23404;SDS011;11875;49.356;2.718;2022-11-20T15:25:59;18.23;;;8.93;;
23404;SDS011;11875;49.356;2.718;2022-11-20T15:30:55;20.53;;;9.93;;
23404;SDS011;11875;49.356;2.718;2022-11-20T15:33:21;13.57;;;6.83;;
23404;SDS011;11875;49.356;2.718;2022-11-20T15:35:47;14.20;;;5.77;;
23404;SDS011;11875;49.356;2.718;2022-11-20T15:38:13;9.93;;;3.90;;
23404;SDS011;11875;49.356;2.718;2022-11-20T15:40:38;14.50;;;3.97;;
23404;SDS011;11875;49.356;2.718;2022-11-20T15:43:04;21.10;;;5.50;;
23404;SDS011;11875;49.356;2.718;2022-11-20T15:45:37;15.53;;;5.10;;
23404;SDS011;11875;49.356;2.718;2022-11-20T15:48:18;14.57;;;5.57;;
23404;SDS011;11875;49.356;2.718;2022-11-20T15:53:21;16.17;;;5.30;;
23404;SDS011;11875;49.356;2.718;2022-11-20T15:55:47;11.63;;;5.63;;
23404;SDS011;11875;49.356;2.718;2022-11-20T15:58:13;18.93;;;6.23;;
23404;SDS011;11875;49.356;2.718;2022-11-20T16:00:38;11.97;;;5.03;;
23404;SDS011;11875;49.356;2.718;2022-11-20T16:03:04;13.33;;;6.23;;
23404;SDS011;11875;49.356;2.718;2022-11-20T16:05:30;14.43;;;4.23;;
23404;SDS011;11875;49.356;2.718;2022-11-20T16:07:56;11.53;;;5.10;;
23404;SDS011;11875;49.356;2.718;2022-11-20T16:10:22;14.73;;;6.90;;
23404;SDS011;11875;49.356;2.718;2022-11-20T16:12:48;14.20;;;6.27;;
23404;SDS011;11875;49.356;2.718;2022-11-20T16:15:33;13.97;;;4.47;;
23404;SDS011;11875;49.356;2.718;2022-11-20T16:18:11;16.70;;;5.03;;
23404;SDS011;11875;49.356;2.718;2022-11-20T16:20:42;17.20;;;5.83;;
23404;SDS011;11875;49.356;2.718;2022-11-20T16:23:08;22.00;;;6.10;;
23404;SDS011;11875;49.356;2.718;2022-11-20T16:25:33;17.20;;;5.13;;
23404;SDS011;11875;49.356;2.718;2022-11-20T16:27:59;33.83;;;25.63;;
23404;SDS011;11875;49.356;2.718;2022-11-20T16:30:25;15.97;;;5.50;;
23404;SDS011;11875;49.356;2.718;2022-11-20T16:32:51;16.57;;;5.20;;
23404;SDS011;11875;49.356;2.718;2022-11-20T16:35:16;12.77;;;4.87;;
23404;SDS011;11875;49.356;2.718;2022-11-20T16:37:42;17.70;;;4.43;;
23404;SDS011;11875;49.356;2.718;2022-11-20T16:40:08;12.33;;;5.03;;
23404;SDS011;11875;49.356;2.718;2022-11-20T16:42:35;12.93;;;4.80;;
23404;SDS011;11875;49.356;2.718;2022-11-20T16:45:02;22.13;;;7.20;;
23404;SDS011;11875;49.356;2.718;2022-11-20T16:47:32;19.10;;;8.57;;
23404;SDS011;11875;49.356;2.718;2022-11-20T16:49:58;54.40;;;29.17;;
23404;SDS011;11875;49.356;2.718;2022-11-20T16:52:24;42.80;;;16.87;;
23404;SDS011;11875;49.356;2.718;2022-11-20T16:54:49;24.10;;;10.33;;
23404;SDS011;11875;49.356;2.718;2022-11-20T16:57:15;46.10;;;24.37;;